Time;durP1;ratioP1;P1;durP2;ratioP2;P2;SDS_P1;SDS_P2;PMS_P1;PMS_P2;Temp;Humidity;BMP_temperature;BMP_pressure;BME280_temperature;BME280_humidity;BME280_pressure;Samples;Min_cycle;Max_cycle;Signal;HPM_P1;HPM_P2
2023/06/17 00:01:27;;;;;;;16.17;14.43;;;20.90;99.90;;;;;;5124722;28;20102;-74
2023/06/17 00:04:04;;;;;;;15.35;14.05;;;20.90;99.90;;;;;;5124700;28;20027;-74
2023/06/17 00:06:41;;;;;;;16.48;13.35;;;20.70;99.90;;;;;;5159953;28;20084;-74
2023/06/17 00:09:15;;;;;;;16.45;14.20;;;20.70;99.90;;;;;;5157914;28;20043;-74
2023/06/17 00:11:51;;;;;;;15.70;14.02;;;20.70;99.90;;;;;;5144374;28;20478;-74
2023/06/17 00:14:26;;;;;;;17.75;16.02;;;20.70;99.90;;;;;;5143972;28;20049;-74
2023/06/17 00:17:24;;;;;;;16.17;14.63;;;20.60;99.90;;;;;;5144376;28;20062;-74
2023/06/17 00:20:08;;;;;;;15.52;13.93;;;20.60;99.90;;;;;;5142782;28;20105;-73
2023/06/17 00:22:44;;;;;;;16.10;14.45;;;20.70;99.90;;;;;;5144330;28;20031;-74
2023/06/17 00:25:30;;;;;;;16.42;14.07;;;20.80;99.90;;;;;;5144196;28;20027;-74
2023/06/17 00:28:04;;;;;;;18.60;15.20;;;20.80;99.90;;;;;;5144644;28;20038;-74
2023/06/17 00:30:48;;;;;;;17.83;15.82;;;20.80;99.90;;;;;;5144149;28;20026;-74
2023/06/17 00:33:22;;;;;;;17.30;15.50;;;20.70;99.90;;;;;;5144741;28;20058;-74
2023/06/17 00:35:59;;;;;;;18.48;14.98;;;20.80;99.90;;;;;;5147819;28;20039;-74
2023/06/17 00:38:35;;;;;;;19.27;14.95;;;20.70;99.90;;;;;;5147817;28;20033;-74
2023/06/17 00:41:18;;;;;;;18.40;14.50;;;20.70;99.90;;;;;;5148030;28;20042;-74
2023/06/17 00:43:51;;;;;;;15.82;14.15;;;20.70;99.90;;;;;;5147776;28;20019;-74
2023/06/17 00:46:49;;;;;;;17.88;14.40;;;20.70;99.90;;;;;;5147788;28;20035;-74
2023/06/17 00:49:54;;;;;;;16.52;14.82;;;20.70;99.90;;;;;;5147762;28;20478;-74
2023/06/17 00:52:40;;;;;;;17.60;15.70;;;20.70;99.90;;;;;;5156222;28;20062;-74
2023/06/17 00:55:28;;;;;;;17.60;15.30;;;20.70;99.90;;;;;;5148530;28;20112;-74
2023/06/17 00:58:02;;;;;;;17.20;14.57;;;20.70;99.90;;;;;;5147966;28;20027;-74
2023/06/17 01:00:36;;;;;;;17.38;15.02;;;20.70;99.90;;;;;;5147434;28;20030;-74
2023/06/17 01:03:17;;;;;;;18.55;15.05;;;20.80;99.90;;;;;;5147756;28;20062;-74
2023/06/17 01:05:53;;;;;;;16.85;15.05;;;20.70;99.90;;;;;;5147531;28;20062;-73
2023/06/17 01:08:42;;;;;;;17.77;15.20;;;20.80;99.90;;;;;;5147493;28;20031;-74
2023/06/17 01:11:20;;;;;;;18.67;16.70;;;20.80;99.90;;;;;;5147522;28;20018;-74
2023/06/17 01:13:56;;;;;;;16.67;15.05;;;20.70;99.90;;;;;;5147287;28;20037;-74
2023/06/17 01:16:41;;;;;;;19.17;16.00;;;20.80;99.90;;;;;;5147166;28;20038;-74
2023/06/17 01:19:38;;;;;;;16.20;14.40;;;20.70;99.90;;;;;;5147132;28;20026;-74
2023/06/17 01:22:17;;;;;;;16.02;14.38;;;20.70;99.90;;;;;;5140547;28;20097;-74
2023/06/17 01:24:52;;;;;;;19.65;14.60;;;20.80;99.90;;;;;;5147145;28;20033;-74
2023/06/17 01:27:28;;;;;;;17.15;15.45;;;20.80;99.90;;;;;;5147087;28;20034;-75
2023/06/17 01:30:02;;;;;;;16.85;15.05;;;20.70;99.90;;;;;;5147304;28;20050;-75
2023/06/17 01:32:37;;;;;;;16.35;14.65;;;20.70;99.90;;;;;;5125771;28;20027;-74
2023/06/17 01:35:18;;;;;;;17.92;15.27;;;20.70;99.90;;;;;;5153036;28;20054;-74
2023/06/17 01:38:26;;;;;;;21.20;14.93;;;20.80;99.90;;;;;;5151592;28;20031;-75
2023/06/17 01:41:16;;;;;;;18.30;16.20;;;20.80;99.90;;;;;;5136553;28;20110;-75
2023/06/17 01:43:57;;;;;;;17.33;15.40;;;20.80;99.90;;;;;;5146795;28;20078;-75
2023/06/17 01:46:31;;;;;;;20.17;17.20;;;20.80;99.90;;;;;;5146066;28;20034;-75
2023/06/17 01:49:09;;;;;;;20.15;16.80;;;20.70;99.90;;;;;;5146668;28;20037;-74
2023/06/17 01:51:43;;;;;;;17.33;15.27;;;20.80;99.90;;;;;;5146123;28;20055;-75
2023/06/17 01:54:17;;;;;;;18.08;16.20;;;20.80;99.90;;;;;;5146659;28;20348;-75
2023/06/17 01:56:57;;;;;;;20.13;16.58;;;20.80;99.90;;;;;;5146482;28;20085;-74
2023/06/17 01:59:37;;;;;;;17.80;16.08;;;20.80;99.90;;;;;;5146564;28;20023;-75
2023/06/17 02:02:17;;;;;;;18.65;16.52;;;20.80;99.90;;;;;;5146785;28;20375;-75
2023/06/17 02:05:07;;;;;;;18.95;16.45;;;20.80;99.90;;;;;;5146348;28;20510;-75
2023/06/17 02:07:45;;;;;;;;;;;20.70;99.90;;;;;;5146748;28;20034;-74
2023/06/17 02:10:24;;;;;;;20.00;15.82;;;20.80;99.90;;;;;;5146358;28;19910;-75
2023/06/17 02:13:09;;;;;;;16.95;15.13;;;20.80;99.90;;;;;;5146341;28;20081;-75
2023/06/17 02:15:44;;;;;;;18.15;15.30;;;20.90;99.90;;;;;;5146329;28;20030;-74
2023/06/17 02:18:22;;;;;;;21.73;16.73;;;20.90;99.90;;;;;;5146052;28;20031;-75
2023/06/17 02:20:58;;;;;;;18.75;16.58;;;20.80;99.90;;;;;;5135437;28;20051;-74
2023/06/17 02:23:40;;;;;;;19.90;15.73;;;20.80;99.90;;;;;;5134354;28;20023;-74
2023/06/17 02:26:20;;;;;;;18.48;16.25;;;20.80;99.90;;;;;;5146038;28;20101;-75
2023/06/17 02:28:56;;;;;;;21.77;16.27;;;20.80;99.90;;;;;;5146049;28;20085;-74
2023/06/17 02:31:32;;;;;;;18.35;16.40;;;20.80;99.90;;;;;;5145861;28;20383;-74
2023/06/17 02:34:07;;;;;;;21.05;17.88;;;20.80;99.90;;;;;;5146030;28;20023;-74
2023/06/17 02:36:42;;;;;;;19.88;17.75;;;20.80;99.90;;;;;;5145725;28;20102;-74
2023/06/17 02:39:18;;;;;;;23.38;17.70;;;20.80;99.90;;;;;;5144903;28;20039;-74
2023/06/17 02:41:58;;;;;;;20.73;17.40;;;20.80;99.90;;;;;;5145643;28;20035;-75
2023/06/17 02:44:32;;;;;;;22.10;17.50;;;20.80;99.90;;;;;;5145302;28;20055;-75
2023/06/17 02:47:12;;;;;;;22.02;18.67;;;20.80;99.90;;;;;;5145598;28;20471;-74
2023/06/17 02:49:47;;;;;;;20.88;18.80;;;20.90;99.90;;;;;;5144968;28;20054;-74
2023/06/17 02:52:25;;;;;;;21.55;18.20;;;20.80;99.90;;;;;;5145570;28;20145;-74
2023/06/17 02:55:03;;;;;;;19.35;17.48;;;20.80;99.90;;;;;;5145387;28;20105;-75
2023/06/17 02:57:48;;;;;;;20.88;18.30;;;20.90;99.90;;;;;;5144447;28;20039;-75
2023/06/17 03:00:21;;;;;;;22.00;18.55;;;20.90;99.90;;;;;;5145306;28;20514;-75
2023/06/17 03:02:59;;;;;;;21.50;19.33;;;20.90;99.90;;;;;;5145366;28;20058;-74
2023/06/17 03:05:38;;;;;;;20.92;18.77;;;20.80;99.90;;;;;;5145005;28;20082;-73
2023/06/17 03:08:14;;;;;;;19.73;17.70;;;20.90;99.90;;;;;;5145294;28;20097;-73
2023/06/17 03:10:51;;;;;;;18.58;16.77;;;20.90;99.90;;;;;;5144995;28;20468;-74
2023/06/17 03:13:29;;;;;;;20.65;17.48;;;20.90;99.90;;;;;;5145089;28;20034;-75
2023/06/17 03:16:05;;;;;;;17.65;15.90;;;20.80;99.90;;;;;;5145285;28;20023;-74
2023/06/17 03:18:38;;;;;;;21.88;18.17;;;20.80;99.90;;;;;;5145088;28;20720;-74
2023/06/17 03:21:22;;;;;;;19.02;16.75;;;20.80;99.90;;;;;;5144801;28;20093;-75
2023/06/17 03:24:20;;;;;;;18.35;16.42;;;20.80;99.90;;;;;;5145081;28;20127;-74
2023/06/17 03:26:54;;;;;;;19.42;17.52;;;20.80;99.90;;;;;;5145544;28;20122;-74
2023/06/17 03:29:36;;;;;;;25.98;17.15;;;20.90;99.90;;;;;;5144991;28;20085;-74
2023/06/17 03:32:13;;;;;;;20.75;16.95;;;20.90;99.90;;;;;;5144866;28;20394;-73
2023/06/17 03:34:58;;;;;;;20.02;18.00;;;20.80;99.90;;;;;;5144716;28;20050;-74
2023/06/17 03:37:33;;;;;;;22.92;19.45;;;20.90;99.90;;;;;;5145386;28;20037;-73
2023/06/17 03:40:13;;;;;;;21.92;18.13;;;20.90;99.90;;;;;;5144892;28;20030;-74
2023/06/17 03:42:47;;;;;;;19.95;17.02;;;20.90;99.90;;;;;;5144682;28;20035;-73
2023/06/17 03:45:25;;;;;;;20.05;17.30;;;20.90;99.90;;;;;;5145032;28;20132;-73
2023/06/17 03:48:05;;;;;;;19.40;17.08;;;20.90;99.90;;;;;;5145057;28;20065;-74
2023/06/17 03:50:39;;;;;;;17.95;16.05;;;20.80;99.90;;;;;;5144433;28;20069;-74
2023/06/17 03:53:12;;;;;;;18.25;16.30;;;20.80;99.90;;;;;;5144613;28;20034;-74
2023/06/17 03:55:52;;;;;;;23.33;17.90;;;20.90;99.90;;;;;;5144752;28;20027;-74
2023/06/17 03:58:31;;;;;;;20.08;18.05;;;20.90;99.90;;;;;;5144460;28;20027;-74
2023/06/17 04:01:12;;;;;;;20.13;18.00;;;20.90;99.90;;;;;;5144336;28;20051;-74
2023/06/17 04:03:46;;;;;;;19.55;17.48;;;20.90;99.90;;;;;;5144599;28;20027;-75
2023/06/17 04:06:23;;;;;;;18.65;16.75;;;20.90;99.90;;;;;;5145635;28;20043;-74
2023/06/17 04:08:57;;;;;;;22.83;16.50;;;20.90;99.90;;;;;;5145975;28;20026;-74
2023/06/17 04:11:32;;;;;;;23.58;17.13;;;20.90;99.90;;;;;;5148243;28;20026;-74
2023/06/17 04:14:13;;;;;;;19.60;16.88;;;21.00;99.90;;;;;;5148314;28;20023;-74
2023/06/17 04:16:49;;;;;;;20.73;16.60;;;21.00;99.90;;;;;;5148301;28;20027;-73
2023/06/17 04:19:25;;;;;;;19.17;15.15;;;21.00;99.90;;;;;;5148103;28;20053;-74
2023/06/17 04:22:05;;;;;;;18.45;14.65;;;21.10;99.90;;;;;;5129336;28;20523;-74
2023/06/17 04:24:39;;;;;;;16.00;13.75;;;21.00;99.90;;;;;;5146610;28;20026;-74
2023/06/17 04:27:16;;;;;;;17.42;15.63;;;21.10;99.90;;;;;;5148059;28;20031;-75
2023/06/17 04:29:56;;;;;;;21.83;15.27;;;21.00;99.90;;;;;;5148123;28;20130;-75
2023/06/17 04:33:05;;;;;;;;;;;;;;;;;;;;;
2023/06/17 04:35:33;;;;;;;15.40;13.70;;;20.90;99.90;;;;;;5146824;28;20117;-75
2023/06/17 04:38:07;;;;;;;16.63;14.57;;;20.90;99.90;;;;;;5148252;28;20501;-74
2023/06/17 04:40:42;;;;;;;17.00;14.77;;;21.00;99.90;;;;;;5148271;28;20053;-74
2023/06/17 04:43:22;;;;;;;19.13;14.82;;;21.00;99.90;;;;;;5148075;28;20026;-74
2023/06/17 04:46:01;;;;;;;18.88;14.82;;;21.00;99.90;;;;;;5147800;28;20029;-74
2023/06/17 04:48:37;;;;;;;18.85;14.63;;;21.00;99.90;;;;;;5147502;28;20399;-74
2023/06/17 04:51:17;;;;;;;23.40;14.60;;;21.00;99.90;;;;;;5147383;28;20089;-74
2023/06/17 04:53:53;;;;;;;15.98;14.32;;;21.00;99.90;;;;;;5147727;28;20035;-74
2023/06/17 04:56:28;;;;;;;19.98;14.73;;;21.10;99.90;;;;;;5147678;28;20035;-75
2023/06/17 04:59:01;;;;;;;19.27;15.52;;;21.20;99.90;;;;;;5147737;28;20050;-75
2023/06/17 05:01:35;;;;;;;16.98;14.27;;;21.10;99.90;;;;;;5147355;28;20046;-75
2023/06/17 05:04:09;;;;;;;19.40;15.98;;;21.10;99.90;;;;;;5147481;28;20027;-74
2023/06/17 05:06:49;;;;;;;19.17;15.38;;;21.10;99.90;;;;;;5147397;28;20047;-75
2023/06/17 05:09:23;;;;;;;17.38;15.00;;;21.10;99.90;;;;;;5147459;28;20117;-74
2023/06/17 05:11:59;;;;;;;16.85;14.40;;;21.10;99.90;;;;;;5147388;28;20073;-75
2023/06/17 05:14:37;;;;;;;19.10;16.85;;;21.10;99.90;;;;;;5147057;28;20034;-75
2023/06/17 05:17:16;;;;;;;19.27;16.88;;;21.20;99.90;;;;;;5149476;28;20110;-74
2023/06/17 05:19:50;;;;;;;21.13;17.98;;;21.20;99.90;;;;;;5144801;28;20490;-75
2023/06/17 05:22:24;;;;;;;19.25;16.67;;;21.20;99.90;;;;;;5141411;28;20117;-75
2023/06/17 05:25:16;;;;;;;18.55;16.52;;;21.30;99.90;;;;;;5147087;28;20053;-73
2023/06/17 05:27:53;;;;;;;22.83;18.20;;;21.30;99.90;;;;;;5147033;28;20039;-75
2023/06/17 05:30:27;;;;;;;19.45;17.52;;;21.40;99.90;;;;;;5146966;28;20034;-74
2023/06/17 05:33:00;;;;;;;19.60;17.55;;;21.50;99.90;;;;;;5146482;28;20034;-74
2023/06/17 05:35:41;;;;;;;20.52;16.70;;;21.60;99.90;;;;;;5159737;28;20585;-75
2023/06/17 05:38:22;;;;;;;21.05;17.17;;;21.60;99.90;;;;;;5151041;28;20031;-75
2023/06/17 05:40:56;;;;;;;22.13;15.60;;;21.70;99.90;;;;;;5146810;28;20035;-75
2023/06/17 05:43:30;;;;;;;17.58;15.20;;;21.60;99.90;;;;;;5153947;28;20113;-74
2023/06/17 05:46:08;;;;;;;17.92;16.00;;;21.70;99.90;;;;;;5162357;28;20031;-75
2023/06/17 05:48:41;;;;;;;18.08;15.38;;;21.70;99.90;;;;;;5146460;28;20110;-74
2023/06/17 05:51:17;;;;;;;18.05;16.10;;;21.70;99.90;;;;;;5133263;28;20094;-74
2023/06/17 05:53:51;;;;;;;20.20;14.80;;;21.80;99.90;;;;;;5142537;28;20374;-75
2023/06/17 05:56:32;;;;;;;16.02;13.70;;;21.80;99.90;;;;;;5146723;28;20121;-74
2023/06/17 05:59:10;;;;;;;16.02;13.98;;;21.70;99.90;;;;;;5145484;28;20114;-74
2023/06/17 06:01:48;;;;;;;16.27;14.65;;;21.80;99.90;;;;;;5146388;28;20041;-74
2023/06/17 06:04:21;;;;;;;16.27;14.55;;;21.90;99.90;;;;;;5146498;28;20407;-71
2023/06/17 06:07:03;;;;;;;16.83;15.05;;;21.90;99.90;;;;;;5146628;28;20034;-74
2023/06/17 06:09:44;;;;;;;17.67;14.82;;;22.00;99.90;;;;;;5145400;28;20100;-75
2023/06/17 06:12:17;;;;;;;15.70;14.10;;;21.90;99.90;;;;;;5145280;28;20026;-75
2023/06/17 06:14:54;;;;;;;17.90;14.27;;;22.00;99.90;;;;;;5146077;28;20034;-74
2023/06/17 06:17:37;;;;;;;17.95;13.90;;;22.10;99.90;;;;;;5145953;28;20061;-74
2023/06/17 06:20:10;;;;;;;15.57;13.40;;;22.10;99.90;;;;;;5145755;28;20391;-73
2023/06/17 06:22:44;;;;;;;14.52;13.02;;;22.20;99.90;;;;;;5146020;28;20037;-75
2023/06/17 06:25:21;;;;;;;14.88;11.68;;;22.30;99.90;;;;;;5147097;28;20014;-75
2023/06/17 06:27:58;;;;;;;14.70;11.13;;;22.30;99.90;;;;;;5146119;28;20502;-73
2023/06/17 06:30:35;;;;;;;15.23;11.90;;;22.30;99.90;;;;;;5145730;28;20372;-75
2023/06/17 06:33:10;;;;;;;12.00;10.68;;;22.30;99.90;;;;;;5145730;28;20118;-74
2023/06/17 06:35:48;;;;;;;13.95;12.20;;;22.10;99.90;;;;;;5145711;28;20065;-74
2023/06/17 06:38:24;;;;;;;13.20;11.13;;;22.20;99.90;;;;;;5144453;28;20019;-75
2023/06/17 06:40:58;;;;;;;16.30;11.45;;;22.30;99.90;;;;;;5145853;28;20042;-75
2023/06/17 06:43:34;;;;;;;18.25;12.25;;;22.60;99.90;;;;;;5145359;28;20441;-75
2023/06/17 06:46:07;;;;;;;12.73;11.40;;;22.70;99.90;;;;;;5144362;28;20031;-75
2023/06/17 06:48:42;;;;;;;13.15;11.80;;;23.00;99.90;;;;;;5145636;28;20047;-75
2023/06/17 06:51:15;;;;;;;19.92;11.93;;;23.30;99.90;;;;;;5138604;28;20082;-75
2023/06/17 06:53:52;;;;;;;15.65;10.82;;;23.50;99.90;;;;;;5145457;28;20058;-74
2023/06/17 06:56:33;;;;;;;11.77;9.90;;;23.50;99.90;;;;;;5145362;28;20027;-74
2023/06/17 06:59:06;;;;;;;12.38;10.40;;;23.40;99.90;;;;;;5145539;28;20035;-75
2023/06/17 07:01:43;;;;;;;14.32;9.05;;;23.40;99.90;;;;;;5145375;28;20405;-75
2023/06/17 07:04:17;;;;;;;11.45;9.23;;;23.30;99.90;;;;;;5145358;28;20023;-75
2023/06/17 07:06:51;;;;;;;14.32;9.80;;;23.20;99.90;;;;;;5144932;28;20066;-75
2023/06/17 07:09:27;;;;;;;17.08;10.80;;;23.10;99.90;;;;;;5145166;28;20026;-74
2023/06/17 07:12:14;;;;;;;12.63;10.30;;;23.10;99.90;;;;;;5145155;28;20428;-75
2023/06/17 07:14:47;;;;;;;12.40;10.32;;;23.10;99.90;;;;;;5144834;28;20447;-75
2023/06/17 07:17:21;;;;;;;13.05;9.43;;;23.10;99.90;;;;;;5145584;28;20033;-75
2023/06/17 07:19:59;;;;;;;11.75;10.35;;;23.10;99.90;;;;;;5144786;28;20088;-74
2023/06/17 07:22:36;;;;;;;13.30;9.50;;;23.20;99.90;;;;;;5145007;28;20438;-75
2023/06/17 07:25:10;;;;;;;15.57;9.55;;;23.10;99.90;;;;;;5144872;28;20038;-74
2023/06/17 07:27:43;;;;;;;15.00;9.77;;;23.10;99.90;;;;;;5143753;28;20070;-75
2023/06/17 07:30:17;;;;;;;17.52;11.00;;;23.00;99.90;;;;;;5144979;28;20114;-74
2023/06/17 07:32:56;;;;;;;12.50;10.10;;;23.20;99.90;;;;;;5144625;28;20026;-74
2023/06/17 07:35:30;;;;;;;;;;;23.30;99.90;;;;;;5145224;28;20038;-74
2023/06/17 07:38:08;;;;;;;14.23;11.43;;;23.40;99.90;;;;;;5144821;28;19913;-75
2023/06/17 07:40:48;;;;;;;16.85;11.48;;;23.30;99.90;;;;;;5144539;28;20107;-75
2023/06/17 07:43:22;;;;;;;12.82;11.15;;;23.50;99.90;;;;;;5144073;28;20021;-74
2023/06/17 07:46:00;;;;;;;12.07;10.25;;;23.80;99.90;;;;;;5144624;28;20030;-75
2023/06/17 07:48:35;;;;;;;11.87;9.67;;;24.00;99.90;;;;;;5144715;28;20034;-75
2023/06/17 07:51:12;;;;;;;11.15;9.73;;;24.00;99.90;;;;;;5144237;28;20059;-75
2023/06/17 07:53:48;;;;;;;15.93;9.85;;;24.10;99.90;;;;;;5145800;28;20375;-75
2023/06/17 07:56:27;;;;;;;11.32;9.93;;;23.70;99.90;;;;;;5144702;28;20379;-74
2023/06/17 07:59:07;;;;;;;16.27;10.05;;;23.90;99.90;;;;;;5144509;28;20023;-75
2023/06/17 08:01:43;;;;;;;15.05;9.32;;;24.00;99.90;;;;;;5144567;28;20058;-75
2023/06/17 08:04:32;;;;;;;12.88;9.90;;;24.20;99.90;;;;;;5144697;28;20030;-74
2023/06/17 08:07:06;;;;;;;12.82;9.63;;;24.20;99.90;;;;;;5125741;28;20035;-75
2023/06/17 08:09:46;;;;;;;12.40;10.73;;;24.30;99.90;;;;;;5144491;28;20031;-74
2023/06/17 08:12:20;;;;;;;14.57;10.52;;;24.20;99.90;;;;;;5144287;28;20035;-74
2023/06/17 08:15:03;;;;;;;16.20;11.02;;;24.30;99.90;;;;;;5144299;28;20023;-75
2023/06/17 08:17:52;;;;;;;11.43;10.18;;;24.60;99.90;;;;;;5144360;28;20136;-75
2023/06/17 08:20:29;;;;;;;11.93;9.80;;;24.70;99.90;;;;;;5144066;28;20043;-74
2023/06/17 08:23:04;;;;;;;13.30;10.68;;;24.70;99.90;;;;;;5144363;28;20034;-75
2023/06/17 08:25:46;;;;;;;10.73;8.32;;;24.70;99.90;;;;;;5144154;28;20039;-75
2023/06/17 08:28:22;;;;;;;13.30;9.02;;;24.60;99.90;;;;;;5144493;28;20035;-74
2023/06/17 08:31:08;;;;;;;11.63;9.75;;;24.80;99.90;;;;;;5144561;28;20451;-74
2023/06/17 08:33:45;;;;;;;12.38;8.70;;;24.80;99.90;;;;;;5144213;28;20388;-74
2023/06/17 08:36:19;;;;;;;11.13;9.82;;;24.90;99.90;;;;;;5144276;28;20023;-74
2023/06/17 08:38:56;;;;;;;11.30;9.90;;;25.00;99.90;;;;;;5144284;28;20038;-74
2023/06/17 08:41:34;;;;;;;13.10;10.88;;;25.20;99.90;;;;;;5141676;28;20043;-74
2023/06/17 08:44:35;;;;;;;11.55;9.13;;;25.40;99.90;;;;;;5144557;28;20390;-72
2023/06/17 08:47:11;;;;;;;13.07;9.00;;;25.20;99.90;;;;;;5142940;28;20023;-72
2023/06/17 08:49:47;;;;;;;12.35;8.77;;;25.50;99.90;;;;;;5142597;28;20042;-72
2023/06/17 08:52:22;;;;;;;18.70;17.20;;;25.40;99.90;;;;;;5141574;28;20049;-73
2023/06/17 08:54:59;;;;;;;23.00;20.52;;;25.30;99.90;;;;;;5139967;28;20066;-73
2023/06/17 08:57:35;;;;;;;19.92;18.25;;;25.10;99.90;;;;;;5137262;28;20065;-73
2023/06/17 09:00:12;;;;;;;17.90;16.58;;;25.00;99.90;;;;;;5141986;28;20146;-73
2023/06/17 09:02:50;;;;;;;14.95;13.57;;;25.00;99.90;;;;;;5143577;28;20073;-73
2023/06/17 09:05:24;;;;;;;14.25;12.90;;;24.90;99.90;;;;;;5146303;28;20502;-73
2023/06/17 09:08:06;;;;;;;11.13;10.10;;;25.40;99.90;;;;;;5145095;28;20491;-74
2023/06/17 09:11:05;;;;;;;13.10;11.80;;;25.40;99.90;;;;;;5145779;28;20030;-73
2023/06/17 09:13:42;;;;;;;13.13;10.27;;;25.50;99.90;;;;;;5143964;28;20089;-73
2023/06/17 09:16:25;;;;;;;14.15;10.35;;;25.40;99.90;;;;;;5147319;28;20038;-74
2023/06/17 09:19:12;;;;;;;11.27;9.95;;;25.60;99.90;;;;;;5147241;28;20019;-73
2023/06/17 09:21:53;;;;;;;9.88;8.88;;;25.30;99.90;;;;;;5147470;28;20047;-74
2023/06/17 09:24:33;;;;;;;10.00;8.77;;;25.20;99.90;;;;;;5147010;28;20475;-74
2023/06/17 09:27:25;;;;;;;12.27;9.77;;;25.00;99.90;;;;;;5147231;28;20114;-74
2023/06/17 09:30:14;;;;;;;11.30;9.15;;;25.10;99.90;;;;;;5127326;28;20036;-74
2023/06/17 09:32:49;;;;;;;12.95;9.18;;;25.30;99.90;;;;;;5127005;28;20499;-74
2023/06/17 09:35:27;;;;;;;9.75;8.90;;;25.50;99.90;;;;;;5153156;28;20042;-74
2023/06/17 09:38:06;;;;;;;10.93;9.85;;;25.50;99.90;;;;;;5157748;28;20039;-75
2023/06/17 09:40:53;;;;;;;11.82;9.95;;;25.60;99.90;;;;;;5146799;28;20234;-74
2023/06/17 09:43:28;;;;;;;9.23;8.30;;;25.70;99.90;;;;;;5146831;28;20050;-74
2023/06/17 09:46:06;;;;;;;12.88;7.82;;;25.40;99.90;;;;;;5146753;28;20031;-74
2023/06/17 09:48:48;;;;;;;15.15;8.18;;;25.50;99.90;;;;;;5146827;28;20023;-74
2023/06/17 09:51:37;;;;;;;9.57;7.28;;;25.20;99.90;;;;;;5132500;28;20055;-74
2023/06/17 09:54:12;;;;;;;9.85;7.60;;;25.40;99.90;;;;;;5146440;28;20085;-74
2023/06/17 09:56:50;;;;;;;11.00;8.55;;;25.40;99.90;;;;;;5146324;28;20093;-74
2023/06/17 09:59:28;;;;;;;12.98;7.80;;;25.40;99.90;;;;;;5146522;28;20022;-74
2023/06/17 10:02:08;;;;;;;8.48;7.47;;;25.40;99.90;;;;;;5146633;28;20039;-74
2023/06/17 10:04:41;;;;;;;;;;;25.70;99.90;;;;;;5146769;28;20386;-74
2023/06/17 10:07:23;;;;;;;12.25;8.80;;;25.70;99.90;;;;;;5145870;28;19949;-74
2023/06/17 10:09:58;;;;;;;20.52;14.90;;;25.50;99.90;;;;;;5146539;28;20443;-74
2023/06/17 10:12:34;;;;;;;12.43;9.07;;;25.60;99.90;;;;;;5146083;28;20023;-74
2023/06/17 10:15:13;;;;;;;10.77;7.82;;;25.50;99.90;;;;;;5146176;28;20471;-74
2023/06/17 10:17:52;;;;;;;9.82;7.55;;;25.40;99.90;;;;;;5146180;28;20053;-74
2023/06/17 10:20:31;;;;;;;10.98;7.43;;;25.30;99.90;;;;;;5139657;28;20134;-74
2023/06/17 10:23:25;;;;;;;9.93;7.65;;;25.30;99.90;;;;;;5126667;28;20052;-73
2023/06/17 10:26:07;;;;;;;12.52;7.93;;;25.30;99.90;;;;;;5146154;28;20382;-74
2023/06/17 10:29:09;;;;;;;11.68;8.02;;;25.50;99.90;;;;;;5126106;28;20040;-73
2023/06/17 10:32:07;;;;;;;13.50;8.48;;;25.90;99.90;;;;;;5145823;28;20106;-74
2023/06/17 10:35:04;;;;;;;10.63;9.52;;;26.00;99.90;;;;;;5145816;28;20394;-74
2023/06/17 10:37:57;;;;;;;9.45;7.03;;;26.00;99.90;;;;;;5145644;28;20026;-74
2023/06/17 10:41:02;;;;;;;10.70;7.72;;;25.80;99.90;;;;;;5144614;28;20038;-74
2023/06/17 10:43:39;;;;;;;12.65;8.13;;;26.20;99.90;;;;;;5139996;28;20538;-74
2023/06/17 10:46:25;;;;;;;9.32;7.35;;;26.30;99.90;;;;;;5144356;28;20038;-74
2023/06/17 10:49:18;;;;;;;9.32;7.63;;;26.20;99.90;;;;;;5145380;28;20499;-74
2023/06/17 10:51:57;;;;;;;12.88;9.63;;;26.50;99.90;;;;;;5143064;28;20125;-75
2023/06/17 10:54:35;;;;;;;11.37;8.50;;;26.60;99.90;;;;;;5145625;28;20479;-74
2023/06/17 10:57:12;;;;;;;12.85;8.48;;;26.70;99.90;;;;;;5145446;28;20022;-74
2023/06/17 10:59:50;;;;;;;9.82;8.32;;;26.70;99.90;;;;;;5145367;28;20034;-72
2023/06/17 11:02:23;;;;;;;11.10;6.88;;;26.60;99.90;;;;;;5145497;28;20039;-74
2023/06/17 11:05:11;;;;;;;12.65;8.10;;;26.60;99.90;;;;;;5145657;28;20538;-74
2023/06/17 11:07:48;;;;;;;12.02;9.50;;;26.90;99.90;;;;;;5145363;28;20133;-74
2023/06/17 11:10:27;;;;;;;9.18;8.05;;;27.00;99.90;;;;;;5145209;28;20041;-73
2023/06/17 11:13:04;;;;;;;14.38;11.68;;;26.90;99.90;;;;;;5145014;28;20035;-75
2023/06/17 11:15:57;;;;;;;12.02;8.85;;;26.50;99.90;;;;;;5145092;28;20431;-75
2023/06/17 11:18:41;;;;;;;15.65;7.97;;;26.10;99.90;;;;;;5144324;28;20471;-74
2023/06/17 11:21:15;;;;;;;11.02;7.95;;;26.00;99.90;;;;;;5132471;28;20055;-74
2023/06/17 11:24:22;;;;;;;11.57;7.78;;;26.00;99.90;;;;;;5141480;28;20375;-70
2023/06/17 11:26:49;;;;;;;12.80;8.10;;;25.70;99.90;;;;;;5142846;28;20039;-74
2023/06/17 11:29:24;;;;;;;10.75;8.30;;;26.00;99.90;;;;;;5144890;28;20094;-73
2023/06/17 11:32:12;;;;;;;10.93;8.63;;;26.10;99.90;;;;;;5144605;28;20029;-73
2023/06/17 11:34:54;;;;;;;9.27;7.43;;;26.10;99.90;;;;;;5144550;28;20502;-74
2023/06/17 11:37:29;;;;;;;10.48;7.53;;;26.20;99.90;;;;;;5144420;28;20039;-74
2023/06/17 11:40:09;;;;;;;11.10;7.28;;;26.10;99.90;;;;;;5143558;28;20746;-74
2023/06/17 11:42:46;;;;;;;11.60;8.20;;;26.20;99.90;;;;;;5144711;28;20030;-74
2023/06/17 11:45:27;;;;;;;10.13;7.93;;;26.00;99.90;;;;;;5144622;28;20054;-74
2023/06/17 11:48:28;;;;;;;;;;;;;;;;;;;;;
2023/06/17 11:51:10;;;;;;;11.50;7.32;;;26.30;99.90;;;;;;5133105;28;20059;-74
2023/06/17 11:53:47;;;;;;;8.68;6.63;;;26.30;99.90;;;;;;5124486;28;20034;-74
2023/06/17 11:56:20;;;;;;;11.18;7.25;;;26.10;99.90;;;;;;5131156;28;20050;-74
2023/06/17 11:59:05;;;;;;;10.52;7.85;;;26.20;99.90;;;;;;5144556;28;20030;-74
2023/06/17 12:01:41;;;;;;;14.80;7.70;;;26.20;99.90;;;;;;5151089;28;20515;-74
2023/06/17 12:04:16;;;;;;;14.57;7.25;;;26.30;99.90;;;;;;5144692;28;20026;-75
2023/06/17 12:06:50;;;;;;;11.00;7.60;;;26.40;99.90;;;;;;5144547;28;20027;-74
2023/06/17 12:09:24;;;;;;;9.38;7.00;;;26.00;99.90;;;;;;5144290;28;20480;-73
2023/06/17 12:12:01;;;;;;;11.63;7.57;;;25.90;99.90;;;;;;5144454;28;20027;-75
2023/06/17 12:14:39;;;;;;;12.98;6.72;;;26.00;99.90;;;;;;5144585;28;20026;-75
2023/06/17 12:17:22;;;;;;;11.85;7.50;;;25.90;99.90;;;;;;5144560;28;20031;-74
2023/06/17 12:20:05;;;;;;;12.93;7.28;;;26.10;99.90;;;;;;5142284;28;20027;-72
2023/06/17 12:22:46;;;;;;;11.57;8.48;;;25.80;99.90;;;;;;5142765;28;20045;-73
2023/06/17 12:25:22;;;;;;;11.00;7.13;;;26.30;99.90;;;;;;5144460;28;20027;-74
2023/06/17 12:27:56;;;;;;;8.82;7.15;;;26.50;99.90;;;;;;5144357;28;20174;-74
2023/06/17 12:30:33;;;;;;;12.65;7.05;;;26.50;99.90;;;;;;5146548;28;20076;-74
2023/06/17 12:33:07;;;;;;;10.77;7.70;;;26.20;99.90;;;;;;5147987;28;20027;-73
2023/06/17 12:35:41;;;;;;;10.88;7.55;;;25.90;99.90;;;;;;5147928;28;20066;-73
2023/06/17 12:38:15;;;;;;;10.75;7.28;;;25.80;99.90;;;;;;5148066;28;20030;-74
2023/06/17 12:40:51;;;;;;;11.38;7.57;;;26.00;99.90;;;;;;5148053;28;20117;-74
2023/06/17 12:43:35;;;;;;;11.63;7.68;;;25.90;99.90;;;;;;5147687;28;20042;-74
2023/06/17 12:46:09;;;;;;;9.90;7.80;;;25.90;99.90;;;;;;5147915;28;20026;-74
2023/06/17 12:48:44;;;;;;;10.57;7.68;;;25.90;99.90;;;;;;5147647;28;20035;-74
2023/06/17 12:51:18;;;;;;;13.70;7.45;;;25.80;99.90;;;;;;5147382;28;20059;-74
2023/06/17 12:53:56;;;;;;;12.68;6.93;;;25.90;99.90;;;;;;5147864;28;20102;-75
2023/06/17 12:56:31;;;;;;;9.90;7.13;;;26.00;99.90;;;;;;5147510;28;20026;-74
2023/06/17 12:59:07;;;;;;;10.85;7.63;;;25.80;99.90;;;;;;5147610;28;20089;-74
2023/06/17 13:01:44;;;;;;;16.23;7.30;;;26.20;99.90;;;;;;5147463;28;20038;-75
2023/06/17 13:04:18;;;;;;;8.85;7.10;;;26.00;99.90;;;;;;5147620;28;20141;-75
2023/06/17 13:06:51;;;;;;;12.05;7.53;;;25.70;99.90;;;;;;5147414;28;20058;-74
2023/06/17 13:09:31;;;;;;;9.38;7.70;;;25.30;99.90;;;;;;5147198;28;20098;-74
2023/06/17 13:12:07;;;;;;;11.43;7.68;;;25.40;99.90;;;;;;5147457;28;20035;-74
2023/06/17 13:14:45;;;;;;;11.15;7.57;;;25.10;99.90;;;;;;5147225;28;20106;-75
2023/06/17 13:17:23;;;;;;;7.55;6.82;;;25.10;99.90;;;;;;5147606;28;20029;-75
2023/06/17 13:20:04;;;;;;;11.82;7.35;;;25.30;99.90;;;;;;5146986;28;20030;-75
2023/06/17 13:22:40;;;;;;;15.35;8.15;;;25.10;99.90;;;;;;5147255;28;20070;-72
2023/06/17 13:25:15;;;;;;;12.35;7.65;;;25.00;99.90;;;;;;5147430;28;20027;-74
2023/06/17 13:27:54;;;;;;;10.55;6.75;;;24.90;99.90;;;;;;5147132;28;20050;-74
2023/06/17 13:30:30;;;;;;;14.23;7.97;;;25.10;99.90;;;;;;5146542;28;20064;-75
2023/06/17 13:33:16;;;;;;;12.85;7.25;;;24.90;99.90;;;;;;5147174;28;20031;-72
2023/06/17 13:35:50;;;;;;;9.45;7.22;;;24.80;99.90;;;;;;5158662;28;20117;-72